Time;durP1;ratioP1;P1;durP2;ratioP2;P2;SDS_P1;SDS_P2;PMS_P1;PMS_P2;Temp;Humidity;BMP_temperature;BMP_pressure;BME280_temperature;BME280_humidity;BME280_pressure;Samples;Min_cycle;Max_cycle;Signal;HPM_P1;HPM_P2
2023/09/01 16:05:54;;;;;;;35.00;10.00;;;;;;;23.87;46.62;99454.38;4991863;28;19906;-91
2023/09/01 16:08:21;;;;;;;23.77;9.18;;;;;;;23.86;46.22;99469.50;4972798;28;20518;-91
2023/09/01 16:10:48;;;;;;;34.80;9.98;;;;;;;23.93;46.67;99493.84;4949290;28;20034;-90
2023/09/01 16:13:18;;;;;;;36.25;9.50;;;;;;;23.76;47.66;99480.69;4969785;28;20042;-90
2023/09/01 16:15:46;;;;;;;28.83;9.70;;;;;;;23.57;47.60;99454.72;4973289;28;20070;-88
2023/09/01 16:18:13;;;;;;;26.92;10.32;;;;;;;23.59;47.90;99463.50;4998322;28;20042;-91
2023/09/01 16:20:39;;;;;;;37.55;15.65;;;;;;;23.63;48.11;99475.44;4990181;28;20073;-91
2023/09/01 16:23:06;;;;;;;;;;;;;;;23.62;48.76;99485.03;4984180;28;20388;-89
2023/09/01 16:25:39;;;;;;;34.67;16.30;;;;;;;23.43;49.23;99466.66;4997569;28;20403;-90
2023/09/01 16:28:08;;;;;;;25.58;13.13;;;;;;;23.31;48.89;99460.66;4988050;28;20030;-92
2023/09/01 16:30:35;;;;;;;25.58;12.45;;;;;;;23.41;48.99;99490.56;4992513;28;20039;-90
2023/09/01 16:33:03;;;;;;;25.77;10.57;;;;;;;23.30;48.74;99484.97;4983491;28;20050;-92
2023/09/01 16:35:29;;;;;;;35.15;10.13;;;;;;;23.17;49.88;99470.59;4961074;28;20038;-92
2023/09/01 16:37:55;;;;;;;88.47;14.10;;;;;;;23.11;50.49;99474.16;4968041;28;20111;-92
2023/09/01 16:40:24;;;;;;;212.80;19.90;;;;;;;22.92;51.25;99464.91;4969465;28;20038;-91
2023/09/01 16:42:53;;;;;;;98.18;12.57;;;;;;;22.90;50.08;99466.50;4970042;28;20058;-92
2023/09/01 16:45:20;;;;;;;69.05;10.93;;;;;;;22.89;49.91;99464.91;4994859;28;20038;-92
2023/09/01 16:48:15;;;;;;;75.15;12.07;;;;;;;22.85;50.64;99478.81;5006226;28;20042;-90
2023/09/01 16:50:45;;;;;;;35.05;11.20;;;;;;;22.63;50.97;99444.47;4969348;28;20046;-91
2023/09/01 16:53:12;;;;;;;54.03;12.40;;;;;;;22.62;50.43;99450.47;4985374;28;20066;-92
2023/09/01 16:55:39;;;;;;;46.08;11.60;;;;;;;22.76;50.59;99481.16;4981748;28;20050;-90
2023/09/01 16:58:13;;;;;;;45.95;11.52;;;;;;;22.52;51.29;99452.00;4963634;28;20046;-91
2023/09/01 17:05:04;;;;;;;;;;;;;;;;;;;;;
2023/09/01 17:16:48;;;;;;;37.28;15.40;;;;;;;22.14;53.42;99437.41;5811783;23;20050;-95
2023/09/01 17:19:28;;;;;;;44.50;15.70;;;;;;;22.28;53.16;99473.75;4969920;28;20380;-91
2023/09/01 17:21:58;;;;;;;68.85;24.85;;;;;;;22.17;53.00;99461.72;4973352;28;20034;-91
2023/09/01 17:24:26;;;;;;;49.75;19.92;;;;;;;21.90;53.85;99421.34;4979908;28;20035;-90
2023/09/01 17:27:06;;;;;;;49.35;18.27;;;;;;;21.85;54.08;99424.47;4956445;29;20074;-93
2023/09/01 17:29:37;;;;;;;61.63;18.88;;;;;;;21.78;54.13;99426.03;4921133;28;20184;-90
2023/09/01 17:32:33;;;;;;;132.65;20.15;;;;;;;21.61;54.99;99407.22;4948314;28;20200;-91
2023/09/01 17:35:09;;;;;;;91.45;17.45;;;;;;;21.49;54.92;99390.81;4958961;29;20055;-90
2023/09/01 17:37:39;;;;;;;77.05;18.48;;;;;;;21.97;55.13;99469.50;4956733;28;20082;-93
2023/09/01 17:40:17;;;;;;;57.13;16.17;;;;;;;21.58;54.76;99411.56;4941543;28;20027;-91
2023/09/01 17:42:54;;;;;;;52.35;15.82;;;;;;;21.87;55.25;99470.22;4960800;28;20047;-91
2023/09/01 17:45:24;;;;;;;42.58;15.77;;;;;;;21.73;55.41;99459.00;4951059;29;20031;-92
2023/09/01 17:47:52;;;;;;;60.28;17.20;;;;;;;21.55;55.78;99431.78;4940192;28;20082;-91
2023/09/01 17:50:28;;;;;;;51.67;17.13;;;;;;;21.43;55.82;99417.41;4938545;29;20047;-91
2023/09/01 17:53:21;;;;;;;50.70;18.48;;;;;;;21.18;55.54;99381.78;4962325;28;20119;-92
2023/09/01 17:55:51;;;;;;;56.38;18.15;;;;;;;21.35;56.02;99420.09;4964666;28;20052;-90
2023/09/01 17:58:18;;;;;;;48.58;17.33;;;;;;;21.20;56.06;99403.66;4946997;28;20045;-89
2023/09/01 18:00:47;;;;;;;53.58;18.15;;;;;;;21.51;56.68;99456.00;4990001;28;20543;-93
2023/09/01 18:03:17;;;;;;;64.90;17.70;;;;;;;21.49;56.55;99457.56;4990525;28;20058;-91
2023/09/01 18:05:43;;;;;;;65.55;27.10;;;;;;;21.35;56.06;99445.13;4979794;28;20105;-91
2023/09/01 18:08:11;;;;;;;65.15;18.90;;;;;;;20.98;56.48;99389.50;4990255;28;20048;-92
2023/09/01 18:10:38;;;;;;;55.72;18.20;;;;;;;21.28;56.57;99447.00;4951667;28;20568;-92
2023/09/01 18:13:05;;;;;;;56.63;18.70;;;;;;;20.97;56.35;99389.91;4954596;28;20055;-92
2023/09/01 18:15:33;;;;;;;36.92;16.08;;;;;;;20.93;56.73;99397.41;4913816;28;20059;-93
2023/09/01 18:18:04;;;;;;;53.25;18.48;;;;;;;21.13;56.50;99423.84;4943958;28;20043;-92
2023/09/01 18:20:31;;;;;;;40.03;14.75;;;;;;;21.13;56.22;99431.38;4962525;28;20053;-90
2023/09/01 18:23:03;;;;;;;33.50;13.85;;;;;;;21.18;56.47;99447.69;4977018;28;20138;-92
2023/09/01 18:25:30;;;;;;;28.75;12.10;;;;;;;21.19;56.19;99446.50;4944661;28;20047;-90
2023/09/01 18:27:56;;;;;;;29.65;10.38;;;;;;;21.12;56.74;99430.56;4932978;29;20040;-89
2023/09/01 18:30:27;;;;;;;26.52;10.32;;;;;;;20.87;56.67;99405.28;4938003;28;20051;-92
2023/09/01 18:33:03;;;;;;;16.92;10.38;;;;;;;21.14;56.73;99441.31;4951965;29;20047;-89
2023/09/01 18:35:29;;;;;;;34.75;11.23;;;;;;;20.92;56.68;99412.47;4955663;28;20087;-87
2023/09/01 18:37:59;;;;;;;30.17;10.95;;;;;;;21.09;57.20;99443.25;4922701;28;20487;-91
2023/09/01 18:40:28;;;;;;;39.15;10.27;;;;;;;20.80;56.60;99403.22;4939403;28;20042;-88
2023/09/01 18:42:56;;;;;;;30.88;10.20;;;;;;;20.81;56.74;99407.59;4955506;28;20189;-89
2023/09/01 18:45:25;;;;;;;28.90;11.05;;;;;;;21.02;57.20;99436.81;4962875;28;20043;-89
2023/09/01 18:47:53;;;;;;;23.63;10.38;;;;;;;20.86;56.91;99412.00;4967662;28;20042;-88
2023/09/01 18:50:22;;;;;;;26.95;10.82;;;;;;;20.88;57.45;99416.00;4981074;28;20050;-89
2023/09/01 18:52:59;;;;;;;33.53;11.30;;;;;;;20.78;57.61;99405.56;4978207;28;20054;-89
2023/09/01 18:55:28;;;;;;;42.85;11.95;;;;;;;20.87;58.14;99424.75;4963605;28;20042;-91
2023/09/01 18:57:54;;;;;;;29.25;12.55;;;;;;;20.64;58.54;99405.41;4949788;28;20052;-89
2023/09/01 19:00:26;;;;;;;38.97;12.20;;;;;;;20.54;59.11;99409.66;4983478;28;20046;-89
2023/09/01 19:02:54;;;;;;;33.47;12.32;;;;;;;20.44;59.39;99398.41;4965958;28;20042;-89
2023/09/01 19:05:32;;;;;;;27.70;12.77;;;;;;;20.32;59.29;99375.22;4999928;28;20046;-89
2023/09/01 19:08:14;;;;;;;35.47;14.55;;;;;;;20.68;59.46;99444.34;4999950;28;20836;-89
2023/09/01 19:10:44;;;;;;;32.75;14.05;;;;;;;20.46;59.83;99415.47;5001083;28;20049;-89
2023/09/01 19:13:11;;;;;;;37.95;14.73;;;;;;;20.31;59.93;99393.06;4991562;28;20038;-90
2023/09/01 19:15:39;;;;;;;32.30;14.75;;;;;;;20.33;59.73;99401.84;5012178;28;20605;-90
2023/09/01 19:18:10;;;;;;;36.78;14.93;;;;;;;20.34;59.94;99408.19;5000822;28;20062;-90
2023/09/01 19:20:36;;;;;;;40.88;15.50;;;;;;;20.34;59.65;99417.31;4967583;28;20037;-92
2023/09/01 19:23:17;;;;;;;34.42;14.43;;;;;;;20.57;60.56;99444.22;4996267;28;20042;-91
2023/09/01 19:25:43;;;;;;;34.53;14.07;;;;;;;20.48;60.46;99440.88;4950856;28;20034;-90
2023/09/01 19:28:18;;;;;;;30.05;15.55;;;;;;;20.18;60.81;99402.81;4962732;28;20056;-90
2023/09/01 19:30:57;;;;;;;37.22;16.40;;;;;;;20.40;60.93;99451.09;4973615;28;20064;-91
2023/09/01 19:33:25;;;;;;;35.70;16.38;;;;;;;20.42;61.18;99457.88;4979916;28;20488;-91
2023/09/01 19:35:52;;;;;;;38.75;16.10;;;;;;;20.30;61.42;99460.88;5000134;28;21982;-92
2023/09/01 19:38:28;;;;;;;49.13;15.48;;;;;;;20.08;61.44;99432.00;4993285;28;20046;-92
2023/09/01 19:40:57;;;;;;;64.53;16.52;;;;;;;20.30;61.75;99460.88;4991835;28;20034;-93
2023/09/01 19:43:25;;;;;;;53.08;17.08;;;;;;;19.92;61.93;99417.50;5017223;28;20061;-89
2023/09/01 19:45:53;;;;;;;37.47;16.38;;;;;;;20.01;61.63;99431.91;4989152;28;20383;-89
2023/09/01 19:48:20;;;;;;;41.25;16.02;;;;;;;20.05;62.27;99438.31;4943768;28;20562;-89
2023/09/01 19:50:46;;;;;;;36.88;18.10;;;;;;;20.12;62.59;99460.59;4994901;28;20492;-90
2023/09/01 19:53:24;;;;;;;59.78;19.98;;;;;;;19.97;63.18;99452.44;5000694;28;20041;-87
2023/09/01 19:55:56;;;;;;;45.85;19.60;;;;;;;19.83;63.77;99428.84;5013016;28;20049;-90
2023/09/01 19:58:30;;;;;;;71.78;33.58;;;;;;;19.68;63.95;99413.16;4998569;28;20062;-91
2023/09/01 20:00:57;;;;;;;93.47;56.08;;;;;;;19.72;63.88;99427.88;4982358;28;20125;-88
2023/09/01 20:03:29;;;;;;;146.48;85.78;;;;;;;19.93;64.30;99464.31;4977967;28;20042;-89
2023/09/01 20:05:55;;;;;;;150.07;89.38;;;;;;;19.68;64.48;99429.81;4960512;28;20464;-89
2023/09/01 20:08:25;;;;;;;126.90;78.60;;;;;;;19.69;64.77;99443.28;4967429;28;20075;-89
2023/09/01 20:10:52;;;;;;;98.57;58.72;;;;;;;19.60;65.24;99433.59;5001300;28;20045;-90
2023/09/01 20:13:18;;;;;;;93.80;54.83;;;;;;;19.60;65.08;99439.13;4960057;28;20034;-88
2023/09/01 20:15:48;;;;;;;66.85;33.63;;;;;;;19.78;65.14;99472.75;4980412;28;20100;-85
2023/09/01 20:18:17;;;;;;;56.10;26.00;;;;;;;19.45;65.53;99436.13;4987227;28;20061;-87
2023/09/01 20:20:46;;;;;;;59.72;27.23;;;;;;;19.60;65.61;99464.09;4976111;28;20050;-87
2023/09/01 20:23:14;;;;;;;58.83;24.38;;;;;;;19.69;65.38;99484.88;4994110;28;20046;-87
2023/09/01 20:25:46;;;;;;;64.93;22.67;;;;;;;19.49;65.07;99453.63;4959737;28;20576;-86
2023/09/01 20:28:13;;;;;;;34.67;20.23;;;;;;;19.42;64.86;99442.41;4975227;28;20054;-87
2023/09/01 20:30:40;;;;;;;44.13;19.52;;;;;;;19.43;64.59;99448.75;4983612;28;20507;-88
2023/09/01 20:33:06;;;;;;;46.80;19.37;;;;;;;19.29;64.90;99429.88;4967915;28;20038;-87
2023/09/01 20:35:32;;;;;;;47.92;18.92;;;;;;;19.52;64.62;99470.69;4976361;28;20093;-87
2023/09/01 20:37:58;;;;;;;39.07;17.00;;;;;;;19.44;64.47;99456.72;4977058;28;20045;-87
2023/09/01 20:40:24;;;;;;;39.33;17.23;;;;;;;19.41;64.20;99456.66;4994705;28;20411;-84
